createdAt,value
2022-09-07T00:00:05.784Z,8.18
2022-09-07T00:02:32.711Z,8.20
2022-09-07T00:04:59.594Z,8.65
2022-09-07T00:07:26.544Z,8.48
2022-09-07T00:09:53.330Z,8.25
2022-09-07T00:12:20.214Z,8.55
2022-09-07T00:14:47.161Z,8.60
2022-09-07T00:17:14.006Z,7.80
2022-09-07T00:19:40.921Z,8.15
2022-09-07T00:22:07.800Z,8.52
2022-09-07T00:24:34.656Z,8.40
2022-09-07T00:27:01.498Z,8.80
2022-09-07T00:29:28.367Z,8.15
2022-09-07T00:31:55.225Z,7.95
2022-09-07T00:34:22.102Z,8.15
2022-09-07T00:36:48.904Z,8.52
2022-09-07T00:39:15.845Z,8.77
2022-09-07T00:41:42.664Z,8.40
2022-09-07T00:44:43.905Z,8.13
2022-09-07T00:47:21.356Z,9.02
2022-09-07T00:49:53.312Z,8.88
2022-09-07T00:52:22.135Z,8.20
2022-09-07T00:54:55.790Z,8.60
2022-09-07T00:57:23.234Z,8.85
2022-09-07T00:59:55.142Z,8.73
2022-09-07T01:02:22.498Z,8.93
2022-09-07T01:04:53.507Z,8.50
2022-09-07T01:07:20.367Z,9.20
2022-09-07T01:09:47.652Z,9.70
2022-09-07T01:12:14.882Z,8.57
2022-09-07T01:14:45.699Z,8.50
2022-09-07T01:17:29.181Z,9.40
2022-09-07T01:20:23.969Z,8.82
2022-09-07T01:22:53.850Z,8.35
2022-09-07T01:26:06.516Z,8.68
2022-09-07T01:28:35.253Z,9.05
2022-09-07T01:31:09.260Z,8.35
2022-09-07T01:33:51.763Z,9.07
2022-09-07T01:36:57.182Z,9.13
2022-09-07T01:39:29.196Z,9.35
2022-09-07T01:42:06.419Z,8.93
2022-09-07T01:44:46.409Z,8.70
2022-09-07T01:47:39.570Z,8.73
2022-09-07T01:50:20.400Z,9.35
2022-09-07T01:52:56.437Z,9.18
2022-09-07T01:55:46.516Z,9.10
2022-09-07T01:58:32.789Z,8.82
2022-09-07T02:01:07.737Z,9.55
2022-09-07T02:03:48.173Z,9.07
2022-09-07T02:06:20.654Z,7.90
2022-09-07T02:09:03.327Z,8.10
2022-09-07T02:11:38.285Z,9.00
2022-09-07T02:14:19.294Z,9.35
2022-09-07T02:17:14.051Z,9.15
2022-09-07T02:19:54.751Z,8.70
2022-09-07T02:22:27.245Z,8.65
2022-09-07T02:24:58.356Z,8.65
2022-09-07T02:27:29.717Z,7.68
2022-09-07T02:29:56.647Z,7.80
2022-09-07T02:32:23.542Z,6.75
2022-09-07T02:34:50.718Z,6.75
2022-09-07T02:37:19.893Z,7.50
2022-09-07T02:39:47.957Z,7.03
2022-09-07T02:42:15.096Z,7.78
2022-09-07T02:44:42.995Z,7.70
2022-09-07T02:47:14.034Z,6.95
2022-09-07T02:49:59.783Z,7.07
2022-09-07T02:52:47.700Z,7.25
2022-09-07T02:55:44.999Z,7.53
2022-09-07T02:58:40.506Z,6.63
2022-09-07T03:01:13.346Z,6.85
2022-09-07T03:04:05.686Z,6.82
2022-09-07T03:06:39.194Z,6.32
2022-09-07T03:09:11.214Z,7.22
2022-09-07T03:11:38.263Z,6.50
2022-09-07T03:14:11.950Z,6.47
2022-09-07T03:16:38.998Z,6.30
2022-09-07T03:19:05.903Z,6.28
2022-09-07T03:21:32.842Z,6.43
2022-09-07T03:23:59.774Z,5.95
2022-09-07T03:26:26.727Z,6.22
2022-09-07T03:28:54.077Z,6.30
2022-09-07T03:31:21.308Z,6.10
2022-09-07T03:33:48.829Z,6.53
2022-09-07T03:36:15.766Z,6.97
2022-09-07T03:38:42.718Z,6.65
2022-09-07T03:41:09.709Z,6.20
2022-09-07T03:43:36.607Z,5.90
2022-09-07T03:46:06.258Z,6.50
2022-09-07T03:48:34.817Z,6.75
2022-09-07T03:51:07.856Z,6.00
2022-09-07T03:53:36.970Z,5.90
2022-09-07T03:56:07.404Z,5.53
2022-09-07T03:58:35.142Z,6.10
2022-09-07T04:01:10.646Z,6.78
2022-09-07T04:03:38.388Z,6.75
2022-09-07T04:06:06.014Z,6.80
2022-09-07T04:08:34.779Z,6.00
2022-09-07T04:11:04.952Z,6.75
2022-09-07T04:13:33.963Z,6.32
2022-09-07T04:16:00.892Z,7.35
2022-09-07T04:18:27.948Z,7.65
2022-09-07T04:20:58.985Z,7.22
2022-09-07T04:23:26.151Z,7.57
2022-09-07T04:25:53.295Z,7.10
2022-09-07T04:28:21.099Z,7.55
2022-09-07T04:30:50.998Z,7.78
2022-09-07T04:33:18.949Z,8.20
2022-09-07T04:35:45.829Z,9.30
2022-09-07T04:38:16.503Z,9.18
2022-09-07T04:40:43.934Z,9.05
2022-09-07T04:43:13.147Z,8.45
2022-09-07T04:45:40.496Z,8.88
2022-09-07T04:48:07.809Z,8.70
2022-09-07T04:50:34.963Z,9.13
2022-09-07T04:53:04.706Z,9.05
2022-09-07T04:55:32.292Z,8.82
2022-09-07T04:57:59.250Z,8.40
2022-09-07T05:00:27.195Z,9.40
2022-09-07T05:02:54.167Z,8.95
2022-09-07T05:05:21.131Z,9.23
2022-09-07T05:07:47.968Z,8.82
2022-09-07T05:10:15.198Z,8.80
2022-09-07T05:12:42.173Z,8.45
2022-09-07T05:15:09.573Z,8.43
2022-09-07T05:17:36.478Z,9.75
2022-09-07T05:20:04.232Z,8.95
2022-09-07T05:22:31.256Z,9.65
2022-09-07T05:24:58.188Z,9.18
2022-09-07T05:27:25.157Z,8.65
2022-09-07T05:30:08.272Z,7.75
2022-09-07T05:32:35.241Z,7.90
2022-09-07T05:35:02.074Z,8.27
2022-09-07T05:37:28.957Z,8.18
2022-09-07T05:39:57.086Z,7.78
2022-09-07T05:42:24.300Z,7.70
2022-09-07T05:44:51.181Z,6.97
2022-09-07T05:47:18.048Z,8.43
2022-09-07T05:49:45.008Z,7.95
2022-09-07T05:52:11.976Z,8.57
2022-09-07T05:54:39.087Z,8.70
2022-09-07T05:57:07.357Z,9.48
2022-09-07T05:59:34.902Z,10.48
2022-09-07T06:02:01.839Z,9.25
2022-09-07T06:04:28.790Z,9.55
2022-09-07T06:07:21.512Z,9.68
2022-09-07T06:12:29.496Z,8.48
2022-09-07T06:14:56.367Z,9.80
2022-09-07T06:17:23.319Z,9.55
2022-09-07T06:19:50.136Z,9.95
2022-09-07T06:22:17.000Z,8.65
2022-09-07T06:24:43.897Z,9.35
2022-09-07T06:27:11.237Z,8.70
2022-09-07T06:29:38.069Z,8.55
2022-09-07T06:34:51.976Z,9.05
2022-09-07T06:37:18.928Z,9.23
2022-09-07T06:39:54.832Z,8.70
2022-09-07T06:42:22.055Z,8.65
2022-09-07T06:44:50.399Z,8.80
2022-09-07T06:47:17.625Z,8.13
2022-09-07T06:49:45.226Z,8.85
2022-09-07T06:52:12.166Z,7.45
2022-09-07T06:57:32.047Z,8.02
2022-09-07T07:00:05.527Z,9.00
2022-09-07T07:02:33.119Z,8.60
2022-09-07T07:05:00.301Z,8.98
2022-09-07T07:07:27.812Z,8.77
2022-09-07T07:09:58.491Z,9.02
2022-09-07T07:14:54.285Z,8.40
2022-09-07T07:17:25.633Z,7.25
2022-09-07T07:19:52.836Z,7.45
2022-09-07T07:25:20.143Z,6.50
2022-09-07T07:30:46.931Z,6.20
2022-09-07T07:33:14.298Z,6.45
2022-09-07T07:35:41.567Z,6.90
2022-09-07T07:43:43.393Z,5.28
2022-09-07T07:46:14.274Z,5.32
2022-09-07T07:48:42.038Z,5.13
2022-09-07T07:51:12.344Z,4.65
2022-09-07T07:53:41.885Z,4.40
2022-09-07T07:56:10.514Z,4.50
2022-09-07T07:58:38.828Z,4.10
2022-09-07T08:01:08.605Z,3.25
2022-09-07T08:03:39.922Z,3.53
2022-09-07T08:06:12.431Z,3.25
2022-09-07T08:08:43.765Z,2.90
2022-09-07T08:11:17.253Z,3.45
2022-09-07T08:13:45.878Z,3.30
2022-09-07T08:16:17.296Z,3.45
2022-09-07T08:18:47.087Z,3.90
2022-09-07T08:21:16.065Z,3.85
2022-09-07T08:23:43.302Z,3.70
2022-09-07T08:26:11.302Z,3.38
2022-09-07T08:28:45.173Z,3.08
2022-09-07T08:31:14.716Z,3.03
2022-09-07T08:33:42.849Z,2.70
2022-09-07T08:36:28.130Z,2.70
2022-09-07T08:38:55.408Z,2.42
2022-09-07T08:41:37.229Z,2.50
2022-09-07T08:44:19.695Z,2.45
2022-09-07T08:47:00.318Z,2.17
2022-09-07T08:49:44.871Z,1.88
2022-09-07T08:52:14.911Z,2.10
2022-09-07T08:54:45.714Z,2.63
2022-09-07T08:57:22.170Z,2.33
2022-09-07T08:59:57.739Z,2.13
2022-09-07T09:02:28.392Z,1.95
2022-09-07T09:08:03.591Z,2.33
2022-09-07T09:11:02.885Z,1.88
2022-09-07T09:13:55.343Z,2.17
2022-09-07T09:16:56.739Z,2.22
2022-09-07T09:19:51.690Z,2.20
2022-09-07T09:22:26.745Z,2.23
2022-09-07T09:24:56.493Z,2.00
2022-09-07T09:27:23.653Z,1.90
2022-09-07T09:29:50.652Z,1.95
2022-09-07T09:32:41.759Z,1.80
2022-09-07T09:35:33.344Z,1.92
2022-09-07T09:38:03.654Z,2.00
2022-09-07T09:40:37.597Z,1.75
2022-09-07T09:43:20.169Z,1.75
2022-09-07T09:48:40.570Z,1.98
2022-09-07T09:54:00.422Z,2.05
2022-09-07T09:56:39.191Z,2.25
2022-09-07T10:05:42.132Z,2.10
2022-09-07T10:08:24.174Z,2.05
2022-09-07T10:11:00.713Z,2.38
2022-09-07T10:13:36.391Z,2.35
2022-09-07T10:16:08.737Z,2.10
2022-09-07T10:18:39.293Z,1.60
2022-09-07T10:21:30.282Z,1.60
2022-09-07T10:24:06.432Z,1.52
2022-09-07T10:26:38.651Z,1.40
2022-09-07T10:29:13.784Z,1.70
2022-09-07T10:31:45.059Z,1.88
2022-09-07T10:34:55.577Z,1.92
2022-09-07T10:37:50.148Z,1.52
2022-09-07T10:40:23.221Z,1.40
2022-09-07T10:43:28.114Z,1.40
2022-09-07T10:46:09.087Z,1.50
2022-09-07T10:49:02.098Z,1.40
2022-09-07T10:51:37.935Z,1.60
2022-09-07T10:54:32.154Z,1.20
2022-09-07T10:57:18.513Z,1.60
2022-09-07T11:00:12.230Z,1.85
2022-09-07T11:06:14.139Z,1.33
2022-09-07T11:12:03.847Z,1.40
2022-09-07T11:14:55.289Z,1.30
2022-09-07T11:17:26.919Z,1.30
2022-09-07T11:20:26.926Z,1.35
2022-09-07T11:23:26.833Z,1.50
2022-09-07T11:26:32.080Z,1.55
2022-09-07T11:29:35.441Z,1.50
2022-09-07T11:32:08.480Z,1.50
2022-09-07T11:34:55.733Z,1.42
2022-09-07T11:37:45.339Z,2.00
2022-09-07T11:40:27.451Z,1.52
2022-09-07T11:43:04.165Z,1.70
2022-09-07T11:45:44.410Z,1.35
2022-09-07T11:48:19.650Z,1.65
2022-09-07T11:50:57.785Z,1.70
2022-09-07T11:53:29.234Z,1.38
2022-09-07T11:56:18.195Z,1.50
2022-09-07T11:59:12.602Z,2.10
2022-09-07T12:02:17.231Z,1.80
2022-09-07T12:04:59.775Z,1.70
2022-09-07T12:08:18.243Z,1.75
2022-09-07T12:10:51.238Z,1.50
2022-09-07T12:13:56.088Z,1.63
2022-09-07T12:16:53.878Z,1.70
2022-09-07T12:19:28.102Z,1.50
2022-09-07T12:21:56.723Z,1.73
2022-09-07T12:24:43.920Z,1.60
2022-09-07T12:27:20.224Z,1.70
2022-09-07T12:29:48.616Z,1.30
2022-09-07T12:32:55.662Z,1.40
2022-09-07T12:35:36.039Z,1.05
2022-09-07T12:38:18.561Z,1.30
2022-09-07T12:41:02.259Z,1.30
2022-09-07T12:43:35.657Z,1.35
2022-09-07T12:46:05.561Z,1.10
2022-09-07T12:49:13.769Z,1.10
2022-09-07T12:54:43.945Z,1.50
2022-09-07T12:57:30.062Z,1.50
2022-09-07T13:00:07.627Z,1.60
2022-09-07T13:06:13.318Z,2.13
2022-09-07T13:09:00.003Z,1.67
2022-09-07T13:11:45.768Z,2.00
2022-09-07T13:14:16.413Z,2.22
2022-09-07T13:19:51.997Z,2.33
2022-09-07T13:22:31.337Z,2.40
2022-09-07T13:25:00.790Z,2.50
2022-09-07T13:27:57.121Z,2.53
2022-09-07T13:30:43.469Z,2.45
2022-09-07T13:33:26.370Z,2.67
2022-09-07T13:35:56.705Z,2.75
2022-09-07T13:38:23.814Z,2.35
2022-09-07T13:40:53.083Z,2.88
2022-09-07T13:43:23.131Z,3.17
2022-09-07T13:45:59.567Z,3.53
2022-09-07T13:48:35.598Z,3.90
2022-09-07T13:51:25.619Z,3.70
2022-09-07T13:54:29.126Z,3.38
2022-09-07T13:57:02.034Z,5.13
2022-09-07T13:59:33.493Z,3.20
2022-09-07T14:02:00.942Z,3.33
2022-09-07T14:04:33.417Z,2.78
2022-09-07T14:07:03.345Z,3.22
2022-09-07T14:09:32.966Z,2.97
2022-09-07T14:12:00.660Z,2.65
2022-09-07T14:14:33.124Z,2.80
2022-09-07T14:17:00.157Z,2.78
2022-09-07T14:19:42.621Z,3.22
2022-09-07T14:22:14.258Z,2.70
2022-09-07T14:24:50.438Z,3.03
2022-09-07T14:27:38.963Z,3.05
2022-09-07T14:30:24.027Z,3.47
2022-09-07T14:32:54.644Z,3.30
2022-09-07T14:35:24.630Z,3.10
2022-09-07T14:37:52.291Z,3.40
2022-09-07T14:40:25.429Z,4.20
2022-09-07T14:42:55.204Z,5.35
2022-09-07T14:45:26.344Z,6.07
2022-09-07T14:47:55.285Z,5.35
2022-09-07T14:50:32.461Z,5.95
2022-09-07T14:56:08.376Z,5.68
2022-09-07T14:58:35.306Z,5.43
2022-09-07T15:04:16.282Z,4.40
2022-09-07T15:09:39.711Z,5.43
2022-09-07T15:12:09.578Z,5.47
2022-09-07T15:14:36.557Z,5.82
2022-09-07T15:19:50.930Z,5.93
2022-09-07T15:22:18.913Z,5.32
2022-09-07T15:24:55.237Z,5.45
2022-09-07T15:27:28.840Z,5.60
2022-09-07T15:29:56.151Z,5.75
2022-09-07T15:32:22.977Z,6.15
2022-09-07T15:34:49.990Z,6.88
2022-09-07T15:40:20.565Z,6.22
2022-09-07T15:43:13.645Z,5.63
2022-09-07T15:45:34.644Z,6.13
2022-09-07T15:48:01.750Z,6.78
2022-09-07T15:50:28.610Z,7.03
2022-09-07T15:52:55.547Z,7.00
2022-09-07T15:55:24.393Z,6.28
2022-09-07T15:58:02.225Z,6.60
2022-09-07T16:00:38.304Z,6.50
2022-09-07T16:03:06.427Z,6.68
2022-09-07T16:05:33.914Z,6.40
2022-09-07T16:11:05.857Z,7.05
2022-09-07T16:13:33.860Z,6.40
2022-09-07T16:16:02.068Z,6.97
2022-09-07T16:18:31.268Z,6.80
2022-09-07T16:21:13.793Z,7.28
2022-09-07T16:23:43.739Z,8.73
2022-09-07T16:26:11.957Z,7.55
2022-09-07T16:28:40.907Z,7.25
2022-09-07T16:31:14.322Z,7.90
2022-09-07T16:33:41.366Z,7.65
2022-09-07T16:36:13.105Z,8.05
2022-09-07T16:38:44.265Z,7.43
2022-09-07T16:41:18.061Z,7.75
2022-09-07T16:43:46.119Z,8.43
2022-09-07T16:46:16.213Z,8.02
2022-09-07T16:48:44.127Z,8.02
2022-09-07T16:51:18.692Z,8.73
2022-09-07T16:53:45.558Z,7.78
2022-09-07T16:56:17.987Z,8.05
2022-09-07T16:58:47.459Z,8.50
2022-09-07T17:01:17.456Z,8.20
2022-09-07T17:03:44.859Z,8.70
2022-09-07T17:06:13.575Z,7.95
2022-09-07T17:08:41.432Z,8.43
2022-09-07T17:11:09.762Z,7.97
2022-09-07T17:13:38.838Z,7.60
2022-09-07T17:16:11.523Z,8.02
2022-09-07T17:21:29.638Z,6.65
2022-09-07T17:23:56.504Z,6.80
2022-09-07T17:26:26.690Z,6.95
2022-09-07T17:29:00.362Z,7.25
2022-09-07T17:34:17.282Z,7.00
2022-09-07T17:36:44.052Z,7.32
2022-09-07T17:39:16.806Z,7.82
2022-09-07T17:41:44.343Z,7.20
2022-09-07T17:44:11.755Z,6.63
2022-09-07T17:46:38.739Z,6.57
2022-09-07T17:49:08.123Z,6.40
2022-09-07T17:51:36.512Z,6.05
2022-09-07T17:54:13.202Z,5.38
2022-09-07T17:56:41.250Z,5.60
2022-09-07T18:01:56.188Z,6.03
2022-09-07T18:04:23.898Z,5.85
2022-09-07T18:06:51.232Z,5.43
2022-09-07T18:09:19.755Z,6.22
2022-09-07T18:11:48.496Z,5.75
2022-09-07T18:14:16.723Z,4.82
2022-09-07T18:16:45.721Z,5.90
2022-09-07T18:19:13.341Z,5.22
2022-09-07T18:21:42.104Z,5.65
2022-09-07T18:24:17.439Z,5.32
2022-09-07T18:29:31.295Z,5.90
2022-09-07T18:32:02.741Z,6.00
2022-09-07T18:34:31.982Z,5.50
2022-09-07T18:37:00.002Z,5.03
2022-09-07T18:39:27.972Z,5.25
2022-09-07T18:41:55.524Z,5.38
2022-09-07T18:47:21.168Z,5.20
2022-09-07T18:49:50.899Z,5.82
2022-09-07T18:55:07.937Z,6.25
2022-09-07T18:57:36.527Z,5.93
2022-09-07T19:00:06.101Z,6.57
2022-09-07T19:02:34.046Z,5.28
2022-09-07T19:07:50.294Z,6.53
2022-09-07T19:10:19.250Z,6.03
2022-09-07T19:12:46.728Z,6.13
2022-09-07T19:15:14.724Z,5.53
2022-09-07T19:17:41.720Z,5.10
2022-09-07T19:20:09.349Z,5.80
2022-09-07T19:22:36.304Z,5.28
2022-09-07T19:25:03.595Z,6.03
2022-09-07T19:27:33.074Z,5.75
2022-09-07T19:30:00.307Z,5.68
2022-09-07T19:32:27.317Z,5.60
2022-09-07T19:34:55.574Z,6.13
2022-09-07T19:37:27.407Z,6.05
2022-09-07T19:39:57.655Z,6.38
2022-09-07T19:42:25.487Z,5.90
2022-09-07T19:44:55.392Z,5.60
2022-09-07T19:47:23.324Z,6.07
2022-09-07T19:49:52.388Z,6.40
2022-09-07T19:52:22.212Z,6.28
2022-09-07T19:54:49.200Z,6.57
2022-09-07T19:57:16.167Z,6.70
2022-09-07T19:59:45.750Z,6.18
2022-09-07T20:02:13.477Z,6.38
2022-09-07T20:04:40.563Z,6.60
2022-09-07T20:07:08.538Z,7.15
2022-09-07T20:09:35.601Z,6.22
2022-09-07T20:12:03.890Z,6.85
2022-09-07T20:14:30.829Z,6.15
2022-09-07T20:17:01.238Z,6.43
2022-09-07T20:19:28.383Z,6.07
2022-09-07T20:21:55.984Z,6.20
2022-09-07T20:24:26.764Z,6.90
2022-09-07T20:26:53.853Z,7.03
2022-09-07T20:29:27.919Z,7.72
2022-09-07T20:31:57.511Z,6.47
2022-09-07T20:34:24.929Z,7.30
2022-09-07T20:36:52.589Z,7.60
2022-09-07T20:39:20.674Z,6.55
2022-09-07T20:41:48.019Z,6.78
2022-09-07T20:44:15.266Z,6.50
2022-09-07T20:46:42.545Z,6.95
2022-09-07T20:49:09.824Z,6.88
2022-09-07T20:51:36.771Z,7.47
2022-09-07T20:54:05.068Z,8.05
2022-09-07T20:56:32.215Z,7.22
2022-09-07T20:59:00.665Z,7.85
2022-09-07T21:01:28.857Z,7.90
2022-09-07T21:03:58.010Z,7.05
2022-09-07T21:06:26.554Z,7.50
2022-09-07T21:08:54.201Z,6.95
2022-09-07T21:11:24.611Z,7.30
2022-09-07T21:13:59.926Z,7.32
2022-09-07T21:16:27.528Z,8.07
2022-09-07T21:18:57.614Z,7.65
2022-09-07T21:21:26.584Z,6.90
2022-09-07T21:24:01.137Z,6.57
2022-09-07T21:26:28.850Z,6.75
2022-09-07T21:29:01.180Z,7.35
2022-09-07T21:31:31.863Z,7.40
2022-09-07T21:34:00.522Z,7.35
2022-09-07T21:36:27.820Z,7.32
2022-09-07T21:38:55.817Z,7.53
2022-09-07T21:41:24.777Z,8.32
2022-09-07T21:43:59.249Z,7.13
2022-09-07T21:46:27.443Z,8.43
2022-09-07T21:48:56.611Z,6.90
2022-09-07T21:51:23.881Z,8.20
2022-09-07T21:53:52.853Z,9.18
2022-09-07T21:56:20.015Z,9.00
2022-09-07T21:58:47.032Z,7.57
2022-09-07T22:01:17.632Z,9.68
2022-09-07T22:03:46.404Z,8.68
2022-09-07T22:06:14.416Z,10.52
2022-09-07T22:08:42.096Z,8.75
2022-09-07T22:11:15.213Z,10.68
2022-09-07T22:13:42.924Z,10.65
2022-09-07T22:16:10.170Z,11.77
2022-09-07T22:18:38.632Z,12.90
2022-09-07T22:21:06.824Z,13.55
2022-09-07T22:23:37.090Z,11.40
2022-09-07T22:26:04.661Z,10.15
2022-09-07T22:28:31.934Z,11.85
2022-09-07T22:31:12.306Z,11.25
2022-09-07T22:33:39.749Z,11.00
2022-09-07T22:36:17.598Z,10.70
2022-09-07T22:38:46.500Z,11.43
2022-09-07T22:41:34.766Z,10.73
2022-09-07T22:44:01.776Z,10.18
2022-09-07T22:46:30.333Z,10.00
2022-09-07T22:48:58.743Z,10.25
2022-09-07T22:51:26.269Z,10.02
2022-09-07T22:53:53.834Z,10.00
2022-09-07T22:56:23.934Z,9.95
2022-09-07T22:59:02.130Z,10.52
2022-09-07T23:01:30.478Z,9.52
2022-09-07T23:03:58.065Z,12.38
2022-09-07T23:06:28.689Z,10.23
2022-09-07T23:08:57.209Z,10.15
2022-09-07T23:11:24.741Z,10.50
2022-09-07T23:13:57.438Z,9.95
2022-09-07T23:16:25.521Z,9.93
2022-09-07T23:18:52.485Z,9.82
2022-09-07T23:21:19.604Z,12.07
2022-09-07T23:23:54.263Z,11.70
2022-09-07T23:26:22.580Z,14.25
2022-09-07T23:28:53.874Z,12.90
2022-09-07T23:31:22.163Z,11.30
2022-09-07T23:33:49.787Z,11.52
2022-09-07T23:36:17.561Z,12.43
2022-09-07T23:38:45.352Z,13.23
2022-09-07T23:41:14.238Z,13.77
2022-09-07T23:43:41.226Z,13.75
2022-09-07T23:46:10.182Z,12.32
2022-09-07T23:48:37.044Z,13.00
2022-09-07T23:51:03.962Z,14.00
2022-09-07T23:53:30.841Z,13.38
2022-09-07T23:55:57.900Z,14.75
2022-09-07T23:58:25.261Z,16.80
